createdAt,value
2019-04-07T00:00:34.406Z,78.42
2019-04-07T00:03:08.644Z,84.83
2019-04-07T00:05:40.775Z,83.82
2019-04-07T00:08:12.564Z,84.37
2019-04-07T00:10:45.292Z,53.42
2019-04-07T00:13:17.326Z,78.40
2019-04-07T00:15:49.943Z,78.42
2019-04-07T00:18:23.033Z,83.80
2019-04-07T00:20:55.265Z,82.55
2019-04-07T00:23:27.308Z,83.47
2019-04-07T00:26:00.163Z,75.70
2019-04-07T00:28:35.185Z,74.67
2019-04-07T00:31:06.597Z,85.62
2019-04-07T00:33:40.176Z,65.87
2019-04-07T00:36:12.298Z,74.90
2019-04-07T00:38:45.001Z,83.60
2019-04-07T00:41:17.235Z,87.00
2019-04-07T00:43:49.648Z,89.03
2019-04-07T00:46:23.422Z,92.72
2019-04-07T00:48:56.202Z,87.35
2019-04-07T00:51:28.617Z,66.42
2019-04-07T00:54:01.123Z,85.03
2019-04-07T00:56:33.674Z,54.60
2019-04-07T00:59:06.875Z,89.87
2019-04-07T01:01:39.901Z,53.38
2019-04-07T01:04:13.112Z,82.00
2019-04-07T01:06:45.988Z,61.30
2019-04-07T01:09:18.755Z,83.72
2019-04-07T01:11:51.052Z,85.75
2019-04-07T01:14:24.710Z,83.80
2019-04-07T01:16:57.446Z,82.25
2019-04-07T01:19:29.181Z,80.92
2019-04-07T01:22:03.194Z,76.77
2019-04-07T01:24:38.501Z,78.62
2019-04-07T01:27:11.525Z,67.97
2019-04-07T01:29:44.550Z,46.28
2019-04-07T01:32:16.955Z,73.00
2019-04-07T01:34:52.112Z,68.75
2019-04-07T01:37:24.256Z,76.47
2019-04-07T01:39:56.691Z,69.87
2019-04-07T01:42:46.495Z,73.12
2019-04-07T01:45:33.419Z,73.90
2019-04-07T01:48:24.661Z,77.58
2019-04-07T01:51:25.819Z,84.32
2019-04-07T01:54:19.989Z,81.82
2019-04-07T01:57:13.497Z,79.85
2019-04-07T02:00:03.129Z,78.40
2019-04-07T02:02:57.562Z,80.62
2019-04-07T02:05:59.283Z,67.30
2019-04-07T02:08:54.998Z,77.78
2019-04-07T02:11:38.626Z,73.00
2019-04-07T02:14:30.283Z,78.35
2019-04-07T02:17:12.021Z,76.05
2019-04-07T02:20:18.093Z,71.47
2019-04-07T02:23:10.606Z,75.97
2019-04-07T02:25:54.913Z,70.95
2019-04-07T02:28:52.559Z,73.83
2019-04-07T02:31:52.274Z,75.40
2019-04-07T02:34:53.144Z,76.35
2019-04-07T02:37:52.891Z,78.17
2019-04-07T02:40:48.787Z,75.78
2019-04-07T02:43:43.162Z,66.95
2019-04-07T02:46:33.289Z,78.50
2019-04-07T02:49:26.749Z,74.32
2019-04-07T02:52:12.361Z,71.70
2019-04-07T02:54:55.201Z,79.05
2019-04-07T02:57:58.235Z,70.20
2019-04-07T03:00:52.398Z,78.45
2019-04-07T03:03:42.771Z,74.22
2019-04-07T03:06:38.419Z,73.72
2019-04-07T03:09:21.846Z,62.33
2019-04-07T03:12:05.398Z,77.37
2019-04-07T03:14:55.866Z,76.87
2019-04-07T03:17:46.334Z,88.03
2019-04-07T03:20:40.978Z,79.80
2019-04-07T03:23:40.257Z,79.10
2019-04-07T03:26:29.435Z,84.77
2019-04-07T03:29:11.917Z,79.45
2019-04-07T03:32:00.055Z,84.03
2019-04-07T03:34:38.967Z,85.10
2019-04-07T03:37:34.300Z,81.63
2019-04-07T03:40:12.625Z,84.28
2019-04-07T03:42:57.269Z,85.80
2019-04-07T03:45:46.241Z,80.92
2019-04-07T03:48:36.975Z,81.45
2019-04-07T03:51:42.612Z,85.32
2019-04-07T03:54:26.644Z,76.90
2019-04-07T03:57:19.825Z,78.62
2019-04-07T04:00:16.840Z,81.60
2019-04-07T04:03:04.156Z,82.97
2019-04-07T04:05:43.401Z,81.92
2019-04-07T04:08:23.277Z,89.32
2019-04-07T04:11:14.206Z,55.63
2019-04-07T04:14:07.855Z,67.55
2019-04-07T04:16:45.845Z,83.47
2019-04-07T04:19:17.428Z,86.25
2019-04-07T04:21:48.681Z,92.50
2019-04-07T04:24:20.005Z,70.22
2019-04-07T04:26:52.301Z,89.67
2019-04-07T04:29:24.636Z,85.38
2019-04-07T04:31:57.106Z,78.17
2019-04-07T04:34:28.520Z,91.02
2019-04-07T04:37:00.045Z,94.03
2019-04-07T04:39:34.138Z,95.57
2019-04-07T04:42:05.751Z,92.05
2019-04-07T04:44:37.982Z,93.07
2019-04-07T04:47:10.186Z,87.72
2019-04-07T04:49:43.533Z,62.35
2019-04-07T04:52:15.681Z,92.37
2019-04-07T04:54:47.482Z,92.35
2019-04-07T04:57:19.997Z,82.75
2019-04-07T04:59:51.263Z,85.45
2019-04-07T05:02:23.538Z,94.65
2019-04-07T05:04:56.115Z,74.65
2019-04-07T05:07:27.559Z,88.72
2019-04-07T05:09:58.879Z,85.97
2019-04-07T05:12:31.354Z,91.47
2019-04-07T05:15:02.618Z,86.08
2019-04-07T05:17:33.983Z,88.10
2019-04-07T05:20:06.040Z,89.97
2019-04-07T05:22:37.944Z,84.42
2019-04-07T05:25:09.472Z,78.52
2019-04-07T05:27:40.597Z,81.30
2019-04-07T05:30:12.347Z,85.65
2019-04-07T05:32:44.289Z,85.25
2019-04-07T05:35:15.531Z,80.42
2019-04-07T05:37:59.906Z,85.70
2019-04-07T05:40:21.466Z,74.97
2019-04-07T05:42:53.208Z,74.40
2019-04-07T05:45:25.360Z,83.12
2019-04-07T05:47:56.724Z,79.82
2019-04-07T05:50:28.795Z,84.20
2019-04-07T05:53:00.319Z,79.95
2019-04-07T05:55:32.309Z,77.80
2019-04-07T05:58:06.969Z,63.17
2019-04-07T06:00:37.179Z,64.60
2019-04-07T06:03:09.339Z,76.97
2019-04-07T06:05:41.023Z,80.65
2019-04-07T06:08:24.650Z,71.65
2019-04-07T06:10:45.900Z,79.77
2019-04-07T06:13:17.620Z,81.12
2019-04-07T06:15:51.157Z,80.92
2019-04-07T06:18:22.813Z,76.33
2019-04-07T06:20:54.515Z,76.12
2019-04-07T06:23:28.566Z,76.53
2019-04-07T06:25:59.456Z,74.27
2019-04-07T06:28:31.610Z,75.42
2019-04-07T06:31:03.184Z,73.35
2019-04-07T06:33:37.620Z,74.92
2019-04-07T06:36:08.248Z,72.58
2019-04-07T06:38:43.627Z,60.23
2019-04-07T06:41:13.754Z,75.25
2019-04-07T06:43:45.197Z,72.65
2019-04-07T06:46:39.041Z,70.80
2019-04-07T06:49:19.761Z,74.30
2019-04-07T06:52:14.572Z,49.60
2019-04-07T06:55:14.656Z,71.53
2019-04-07T06:58:02.094Z,72.17
2019-04-07T07:00:47.294Z,74.77
2019-04-07T07:03:53.824Z,73.67
2019-04-07T07:06:55.809Z,67.75
2019-04-07T07:11:35.451Z,70.22
2019-04-07T07:14:32.879Z,55.03
2019-04-07T07:17:27.879Z,62.95
2019-04-07T07:20:21.789Z,91.60
2019-04-07T07:23:00.444Z,59.75
2019-04-07T07:25:33.060Z,55.12
2019-04-07T07:28:04.470Z,57.03
2019-04-07T07:30:36.114Z,56.37
2019-04-07T07:33:09.990Z,56.40
2019-04-07T07:35:40.979Z,50.43
2019-04-07T07:38:12.626Z,62.30
2019-04-07T07:40:44.988Z,62.67
2019-04-07T07:43:17.614Z,59.00
2019-04-07T07:45:48.893Z,60.83
2019-04-07T07:48:20.800Z,55.28
2019-04-07T07:50:53.735Z,51.98
2019-04-07T07:53:28.115Z,54.27
2019-04-07T07:55:58.425Z,50.67
2019-04-07T07:58:32.622Z,51.80
2019-04-07T08:01:03.301Z,50.25
2019-04-07T08:03:35.184Z,53.30
2019-04-07T08:06:08.342Z,54.50
2019-04-07T08:08:39.696Z,51.98
2019-04-07T08:11:11.232Z,54.00
2019-04-07T08:13:44.984Z,50.92
2019-04-07T08:16:16.282Z,50.78
2019-04-07T08:18:47.753Z,50.20
2019-04-07T08:21:20.158Z,48.28
2019-04-07T08:23:52.396Z,50.70
2019-04-07T08:26:25.099Z,49.08
2019-04-07T08:28:56.628Z,48.15
2019-04-07T08:31:29.277Z,50.65
2019-04-07T08:34:01.556Z,47.08
2019-04-07T08:36:33.833Z,48.85
2019-04-07T08:39:18.534Z,51.45
2019-04-07T08:41:41.641Z,48.95
2019-04-07T08:44:13.152Z,48.98
2019-04-07T08:46:44.677Z,46.58
2019-04-07T08:49:17.138Z,50.23
2019-04-07T08:51:48.377Z,49.35
2019-04-07T08:54:19.957Z,49.73
2019-04-07T08:56:52.018Z,45.60
2019-04-07T08:59:23.556Z,47.17
2019-04-07T09:01:57.061Z,42.45
2019-04-07T09:04:28.467Z,45.75
2019-04-07T09:07:02.189Z,41.35
2019-04-07T09:09:36.887Z,41.92
2019-04-07T09:12:06.000Z,45.33
2019-04-07T09:14:39.716Z,42.27
2019-04-07T09:17:32.217Z,43.70
2019-04-07T09:20:29.199Z,47.80
2019-04-07T09:23:20.054Z,39.50
2019-04-07T09:26:11.781Z,53.85
2019-04-07T09:29:10.488Z,35.78
2019-04-07T09:31:56.357Z,55.28
2019-04-07T09:34:50.546Z,33.60
2019-04-07T09:37:26.223Z,41.70
2019-04-07T09:40:06.843Z,37.05
2019-04-07T09:42:47.429Z,48.30
2019-04-07T09:45:38.596Z,40.60
2019-04-07T09:48:21.011Z,35.52
2019-04-07T09:51:11.146Z,31.48
2019-04-07T09:54:10.025Z,55.00
2019-04-07T09:57:03.426Z,55.05
2019-04-07T09:59:53.380Z,49.48
2019-04-07T10:02:43.721Z,53.65
2019-04-07T10:05:32.718Z,53.23
2019-04-07T10:08:22.892Z,55.88
2019-04-07T10:11:12.850Z,63.42
2019-04-07T10:14:05.675Z,57.25
2019-04-07T10:16:57.400Z,48.87
2019-04-07T10:19:47.526Z,52.50
2019-04-07T10:22:35.011Z,56.58
2019-04-07T10:25:26.873Z,36.68
2019-04-07T10:28:22.379Z,56.63
2019-04-07T10:31:13.830Z,59.35
2019-04-07T10:34:08.077Z,60.23
2019-04-07T10:37:03.679Z,46.85
2019-04-07T10:40:33.365Z,51.58
2019-04-07T10:43:08.508Z,52.15
2019-04-07T10:45:45.926Z,42.98
2019-04-07T10:48:33.325Z,56.53
2019-04-07T10:51:47.672Z,47.35
2019-04-07T10:54:52.476Z,55.10
2019-04-07T10:57:31.198Z,57.80
2019-04-07T11:00:21.416Z,50.40
2019-04-07T11:03:06.466Z,57.27
2019-04-07T11:05:55.358Z,47.08
2019-04-07T11:08:44.322Z,53.30
2019-04-07T11:11:49.098Z,49.25
2019-04-07T11:14:44.422Z,33.67
2019-04-07T11:17:38.298Z,57.45
2019-04-07T11:20:17.880Z,45.55
2019-04-07T11:23:16.582Z,61.45
2019-04-07T11:26:05.460Z,54.88
2019-04-07T11:28:51.165Z,53.13
2019-04-07T11:31:30.965Z,42.33
2019-04-07T11:34:27.107Z,45.92
2019-04-07T11:37:20.021Z,56.15
2019-04-07T11:40:10.763Z,45.95
2019-04-07T11:43:04.425Z,41.88
2019-04-07T11:46:03.566Z,45.95
2019-04-07T11:48:52.310Z,54.85
2019-04-07T11:51:32.473Z,51.23
2019-04-07T11:54:24.132Z,38.58
2019-04-07T11:57:21.531Z,37.15
2019-04-07T12:00:01.170Z,42.35
2019-04-07T12:02:51.917Z,52.80
2019-04-07T12:05:55.139Z,40.33
2019-04-07T12:08:39.369Z,47.38
2019-04-07T12:11:48.287Z,37.63
2019-04-07T12:14:33.926Z,45.58
2019-04-07T12:17:25.610Z,55.80
2019-04-07T12:20:15.208Z,51.77
2019-04-07T12:23:22.921Z,50.43
2019-04-07T12:26:05.159Z,51.63
2019-04-07T12:28:47.591Z,54.85
2019-04-07T12:31:43.448Z,51.20
2019-04-07T12:34:45.842Z,39.40
2019-04-07T12:37:42.396Z,41.30
2019-04-07T12:40:34.544Z,42.38
2019-04-07T12:43:13.195Z,41.02
2019-04-07T12:45:53.713Z,44.95
2019-04-07T12:48:46.949Z,34.55
2019-04-07T12:51:42.976Z,39.92
2019-04-07T12:54:22.214Z,46.80
2019-04-07T12:57:26.174Z,41.60
2019-04-07T13:00:23.924Z,45.58
2019-04-07T13:03:13.080Z,48.85
2019-04-07T13:06:08.674Z,40.50
2019-04-07T13:08:58.162Z,44.95
2019-04-07T13:11:40.120Z,45.55
2019-04-07T13:14:41.304Z,41.55
2019-04-07T13:17:41.022Z,39.27
2019-04-07T13:20:33.283Z,44.03
2019-04-07T13:23:37.271Z,36.20
2019-04-07T13:26:30.246Z,45.28
2019-04-07T13:29:20.531Z,45.30
2019-04-07T13:32:00.157Z,32.90
2019-04-07T13:34:49.886Z,37.28
2019-04-07T13:37:27.164Z,48.15
2019-04-07T13:40:20.342Z,41.73
2019-04-07T13:43:04.251Z,48.42
2019-04-07T13:45:53.940Z,37.10
2019-04-07T13:48:51.551Z,41.05
2019-04-07T13:51:40.877Z,42.62
2019-04-07T13:54:27.771Z,45.85
2019-04-07T13:57:22.228Z,46.30
2019-04-07T14:00:15.848Z,31.75
2019-04-07T14:03:08.356Z,35.87
2019-04-07T14:06:11.321Z,43.90
2019-04-07T14:09:02.585Z,40.95
2019-04-07T14:14:45.345Z,36.98
2019-04-07T14:17:41.891Z,43.95
2019-04-07T14:20:22.616Z,37.67
2019-04-07T14:23:12.167Z,35.23
2019-04-07T14:26:05.713Z,32.93
2019-04-07T14:28:56.537Z,40.15
2019-04-07T14:31:43.142Z,31.37
2019-04-07T14:34:41.301Z,28.02
2019-04-07T14:37:40.831Z,40.45
2019-04-07T14:40:32.135Z,30.48
2019-04-07T14:43:22.289Z,35.83
2019-04-07T14:45:59.148Z,43.25
2019-04-07T14:49:00.079Z,44.93
2019-04-07T14:51:42.460Z,39.85
2019-04-07T14:54:37.740Z,46.50
2019-04-07T14:57:19.097Z,46.00
2019-04-07T15:00:07.841Z,44.35
2019-04-07T15:02:41.721Z,39.60
2019-04-07T15:05:18.567Z,40.05
2019-04-07T15:08:12.421Z,42.08
2019-04-07T15:10:47.322Z,46.75
2019-04-07T15:13:27.967Z,45.55
2019-04-07T15:15:57.215Z,45.20
2019-04-07T15:18:28.693Z,46.60
2019-04-07T15:21:00.330Z,32.90
2019-04-07T15:23:33.118Z,48.13
2019-04-07T15:26:05.329Z,38.23
2019-04-07T15:28:37.230Z,42.83
2019-04-07T15:31:08.647Z,40.50
2019-04-07T15:33:40.043Z,42.23
2019-04-07T15:36:12.796Z,43.87
2019-04-07T15:38:44.220Z,41.02
2019-04-07T15:41:18.308Z,24.60
2019-04-07T15:43:50.036Z,40.25
2019-04-07T15:46:22.510Z,39.83
2019-04-07T15:48:55.898Z,41.30
2019-04-07T15:51:28.296Z,40.23
2019-04-07T15:54:00.661Z,37.10
2019-04-07T15:56:32.564Z,34.55
2019-04-07T15:59:04.326Z,44.90
2019-04-07T16:01:36.087Z,43.73
2019-04-07T16:04:09.615Z,45.10
2019-04-07T16:06:41.897Z,47.23
2019-04-07T16:09:29.102Z,40.70
2019-04-07T16:11:49.641Z,44.77
2019-04-07T16:14:21.910Z,43.33
2019-04-07T16:16:53.722Z,47.80
2019-04-07T16:19:37.351Z,46.25
2019-04-07T16:21:58.248Z,45.35
2019-04-07T16:24:31.065Z,47.90
2019-04-07T16:27:05.474Z,47.98
2019-04-07T16:29:36.473Z,42.83
2019-04-07T16:32:08.145Z,47.40
2019-04-07T16:34:42.174Z,43.35
2019-04-07T16:37:12.386Z,45.92
2019-04-07T16:39:44.531Z,43.87
2019-04-07T16:42:16.054Z,48.75
2019-04-07T16:44:48.340Z,43.45
2019-04-07T16:47:24.439Z,48.42
2019-04-07T16:49:52.686Z,46.70
2019-04-07T16:52:24.421Z,45.33
2019-04-07T16:54:56.008Z,45.67
2019-04-07T16:57:31.036Z,45.20
2019-04-07T17:00:01.562Z,44.35
2019-04-07T17:02:33.693Z,44.70
2019-04-07T17:05:05.792Z,46.53
2019-04-07T17:07:38.224Z,48.40
2019-04-07T17:10:09.826Z,44.15
2019-04-07T17:12:41.224Z,47.17
2019-04-07T17:15:13.532Z,46.33
2019-04-07T17:17:46.535Z,47.50
2019-04-07T17:20:18.961Z,46.75
2019-04-07T17:22:51.096Z,45.08
2019-04-07T17:25:22.890Z,46.50
2019-04-07T17:27:56.019Z,46.83
2019-04-07T17:30:28.993Z,45.33
2019-04-07T17:33:03.294Z,45.35
2019-04-07T17:35:35.581Z,48.50
2019-04-07T17:38:08.604Z,47.98
2019-04-07T17:40:49.227Z,47.58
2019-04-07T17:43:55.118Z,46.33
2019-04-07T17:46:37.379Z,49.93
2019-04-07T17:49:32.946Z,49.88
2019-04-07T17:52:21.825Z,50.00
2019-04-07T17:55:25.265Z,50.40
2019-04-07T17:58:16.020Z,49.03
2019-04-07T18:01:20.616Z,47.53
2019-04-07T18:04:16.151Z,47.75
2019-04-07T18:07:16.356Z,44.93
2019-04-07T18:10:10.107Z,44.55
2019-04-07T18:12:49.816Z,46.65
2019-04-07T18:15:38.312Z,48.95
2019-04-07T18:18:41.882Z,54.27
2019-04-07T18:21:46.871Z,47.85
2019-04-07T18:24:39.427Z,46.37
2019-04-07T18:27:34.190Z,47.67
2019-04-07T18:30:23.221Z,49.90
2019-04-07T18:33:06.642Z,48.75
2019-04-07T18:35:56.095Z,46.37
2019-04-07T18:38:49.653Z,50.00
2019-04-07T18:41:34.758Z,50.20
2019-04-07T18:44:23.942Z,49.10
2019-04-07T18:47:23.359Z,50.78
2019-04-07T18:50:26.839Z,49.10
2019-04-07T18:53:17.835Z,47.98
2019-04-07T18:56:26.028Z,47.35
2019-04-07T18:59:17.110Z,50.33
2019-04-07T19:02:14.072Z,55.00
2019-04-07T19:05:03.891Z,48.70
2019-04-07T19:07:48.544Z,49.42
2019-04-07T19:10:42.496Z,53.75
2019-04-07T19:13:27.006Z,48.95
2019-04-07T19:16:19.024Z,50.20
2019-04-07T19:19:21.393Z,53.00
2019-04-07T19:22:18.878Z,53.52
2019-04-07T19:25:09.267Z,55.67
2019-04-07T19:28:00.043Z,53.70
2019-04-07T19:30:59.269Z,51.90
2019-04-07T19:34:07.849Z,53.13
2019-04-07T19:36:49.928Z,53.42
2019-04-07T19:39:53.087Z,53.92
2019-04-07T19:42:43.635Z,50.92
2019-04-07T19:45:41.565Z,53.02
2019-04-07T19:48:30.940Z,52.40
2019-04-07T19:51:29.307Z,54.33
2019-04-07T19:54:27.320Z,58.70
2019-04-07T19:57:15.432Z,61.65
2019-04-07T19:59:57.033Z,58.52
2019-04-07T20:03:09.645Z,57.45
2019-04-07T20:05:53.370Z,60.35
2019-04-07T20:08:34.548Z,58.23
2019-04-07T20:11:28.461Z,59.67
2019-04-07T20:14:13.336Z,58.87
2019-04-07T20:16:59.866Z,50.73
2019-04-07T20:19:51.345Z,60.98
2019-04-07T20:22:35.774Z,58.85
2019-04-07T20:25:20.201Z,58.42
2019-04-07T20:28:30.248Z,64.80
2019-04-07T20:31:26.475Z,58.90
2019-04-07T20:34:16.636Z,62.85
2019-04-07T20:37:26.681Z,64.22
2019-04-07T20:40:22.188Z,66.35
2019-04-07T20:43:01.078Z,75.57
2019-04-07T20:45:49.129Z,68.80
2019-04-07T20:48:46.808Z,75.03
2019-04-07T20:51:28.361Z,75.40
2019-04-07T20:54:24.633Z,73.45
2019-04-07T20:57:07.533Z,77.82
2019-04-07T21:00:03.667Z,77.70
2019-04-07T21:03:06.467Z,76.87
2019-04-07T21:05:42.001Z,71.30
2019-04-07T21:08:38.764Z,68.70
2019-04-07T21:11:24.089Z,72.20
2019-04-07T21:14:17.185Z,74.70
2019-04-07T21:17:10.754Z,73.52
2019-04-07T21:20:05.407Z,73.65
2019-04-07T21:23:02.802Z,67.42
2019-04-07T21:25:55.832Z,64.65
2019-04-07T21:28:47.205Z,64.25
2019-04-07T21:31:41.316Z,65.70
2019-04-07T21:34:29.589Z,65.72
2019-04-07T21:37:19.825Z,57.80
2019-04-07T21:40:04.200Z,68.37
2019-04-07T21:43:00.536Z,61.53
2019-04-07T21:45:49.849Z,62.30
2019-04-07T21:48:45.938Z,58.58
2019-04-07T21:51:52.665Z,67.15
2019-04-07T21:54:46.996Z,63.78
2019-04-07T21:57:55.338Z,50.88
2019-04-07T22:00:43.326Z,61.18
2019-04-07T22:03:46.187Z,67.35
2019-04-07T22:06:32.099Z,67.30
2019-04-07T22:09:15.898Z,72.45
2019-04-07T22:11:45.943Z,66.57
2019-04-07T22:14:17.074Z,73.85
2019-04-07T22:16:48.969Z,77.17
2019-04-07T22:19:21.075Z,75.12
2019-04-07T22:21:55.759Z,75.55
2019-04-07T22:24:26.327Z,84.80
2019-04-07T22:26:57.639Z,78.97
2019-04-07T22:29:28.861Z,76.12
2019-04-07T22:32:00.070Z,79.75
2019-04-07T22:34:32.653Z,80.77
2019-04-07T22:37:04.838Z,84.83
2019-04-07T22:39:36.110Z,84.70
2019-04-07T22:42:07.301Z,86.47
2019-04-07T22:44:38.521Z,78.83
2019-04-07T22:48:16.533Z,85.85
2019-04-07T22:50:47.746Z,82.40
2019-04-07T22:53:22.312Z,87.20
2019-04-07T22:55:52.712Z,83.52
2019-04-07T22:58:24.284Z,84.15
2019-04-07T23:00:55.559Z,88.07
2019-04-07T23:03:27.153Z,87.25
2019-04-07T23:05:59.041Z,81.42
2019-04-07T23:08:30.319Z,82.40
2019-04-07T23:11:02.200Z,87.92
2019-04-07T23:13:33.512Z,86.70
2019-04-07T23:16:10.538Z,81.60
2019-04-07T23:18:40.736Z,77.50
2019-04-07T23:21:12.106Z,81.65
2019-04-07T23:23:43.394Z,75.28
2019-04-07T23:26:14.563Z,75.67
2019-04-07T23:28:47.063Z,79.40
2019-04-07T23:31:19.438Z,76.75
2019-04-07T23:33:53.354Z,76.45
2019-04-07T23:36:24.784Z,76.45
2019-04-07T23:38:55.992Z,72.15
2019-04-07T23:41:27.793Z,60.70
2019-04-07T23:43:59.065Z,68.55
2019-04-07T23:46:30.341Z,70.17
2019-04-07T23:49:01.649Z,70.92
2019-04-07T23:51:32.855Z,61.58
2019-04-07T23:54:09.167Z,67.20
2019-04-07T23:56:41.806Z,62.45
2019-04-07T23:59:16.790Z,50.92
